EDDR 210150Z 04004KT 270V080 9999 BKN044 11/08 Q1024 EDDR 210120Z 06006KT 020V080 9999 BKN045 11/08 Q1024 EDDR 210050Z 04004KT 9999 BKN045 10/08 Q1024 EDDR 210020Z 04003KT 340V090 9999 BKN049 11/09 Q1024 EDDR 202350Z 06003KT 010V090 9999 BKN049 11/09 Q1024 EDDR 202320Z 04003KT 9999 BKN049 11/09 Q1024 EDDR 202250Z 04004KT 360V060 9999 BKN049 11/09 Q1024 EDDR 202220Z 04005KT 360V080 9999 BKN044 12/09 Q1024 EDDR 202150Z 03007KT 350V060 9999 BKN041 12/10 Q1024 EDDR 202120Z 04005KT 9999 SCT041 12/10 Q1023 EDDR 202050Z 04005KT 9999 FEW041 11/09 Q1023 EDDR 202020Z 06006KT 9999 FEW041 11/10 Q1023 NOSIG EDDR 201950Z 06005KT 9999 FEW041 11/10 Q1022 NOSIG EDDR 201920Z 06006KT CAVOK 12/10 Q1022 NOSIG EDDR 201850Z 06006KT CAVOK 12/11 Q1022 NOSIG EDDR 201820Z 06006KT 9999 FEW045 13/11 Q1022 NOSIG EDDR 201750Z 06007KT 9999 FEW045 13/11 Q1021 NOSIG EDDR 201720Z 06006KT 9999 FEW041 14/11 Q1021 NOSIG EDDR 201650Z 05006KT 020V090 9999 FEW018 15/12 Q1020 NOSIG EDDR 201620Z 05006KT 020V090 9999 FEW016 16/12 Q1020 NOSIG EDDR 201550Z 05006KT 030V090 9999 FEW016 16/12 Q1020 NOSIG EDDR 201520Z 05006KT 010V080 9999 FEW016 17/13 Q1020 NOSIG EDDR 201450Z 02007KT 340V060 9999 SCT018 17/13 Q1019 NOSIG EDDR 201420Z 04004KT 340V120 9999 SCT018 17/13 Q1019 NOSIG EDDR 201350Z 03005KT 360V070 9999 BKN014 16/12 Q1019 NOSIG EDDR 201320Z 04005KT 350V070 9999 BKN013 15/13 Q1019 NOSIG EDDR 201250Z 02005KT 320V070 9999 FEW008 BKN012 BKN035 15/13 Q1019 NOSIG EDDR 201220Z 01004KT 330V050 9999 FEW007 BKN011 BKN022 15/13 Q1019 NOSIG EDDR 201150Z 36004KT 320V040 9999 BKN009 BKN017 15/13 Q1019 BECMG BKN011 BKN015 EDDR 201120Z 02003KT 340V050 9999 BKN007 14/13 Q1019 BECMG SCT007 BKN013 EDDR 201050Z 04004KT 350V080 9999 BKN007 14/12 Q1019 BECMG SCT007 BKN013 EDDR 201020Z 03004KT 340V130 9999 BKN006 14/12 Q1019 BECMG SCT006 BKN013 EDDR 200950Z 04004KT 010V100 6000 BKN005 OVC010 14/12 Q1019 BECMG SCT005 BKN013 EDDR 200920Z 05004KT 4000 BR FEW003 OVC004 13/12 Q1019 BECMG 6000 SCT004 BKN007 EDDR 200850Z 04003KT 360V080 4000 BR SCT002 OVC003 13/12 Q1018 BECMG 6000 SCT003 BKN007 EDDR 200820Z 05004KT 3000 BR SCT002 OVC003 13/12 Q1018 BECMG 6000 SCT003 BKN007 EDDR 200750Z 07003KT 040V100 2500 1300E R09/P2000N -DZ BR BKN002 OVC003 13/12 Q1018 BECMG 5000 SCT002 BKN005 EDDR 200720Z VRB02KT 2500 -DZ BR FEW002 OVC003 12/12 Q1018 NOSIG EDDR 200650Z 05003KT 2500 -DZ BR FEW002 OVC003 12/12 Q1018 NOSIG EDDR 200620Z 08003KT 3000 -DZ BR FEW002 OVC003 12/11 Q1018 TEMPO 2000 DZ EDDR 200550Z 09003KT 5000 BR FEW002 OVC003 12/11 Q1017 NOSIG EDDR 200520Z 05004KT 5000 BR FEW002 OVC003 12/12 Q1017 NOSIG EDDR 200450Z 05003KT 5000 BR FEW002 OVC003 13/12 Q1017 NOSIG EDDR 200420Z 08001KT 6000 FEW002 BKN003 13/13 Q1017 TEMPO 4000 BR EDDR 200350Z 06002KT 9999 BKN003 13/13 Q1017 NOSIG EDDR 200320Z 00000KT 9999 FEW004 OVC009 13/13 Q1017 EDDR 200250Z VRB01KT 9999 SCT004 OVC009 13/13 Q1017 EDDR 200220Z 23003KT 5000 BR OVC004 13/13 Q1017 EDDR 200150Z 21004KT 9999 OVC005 13/13 Q1017 EDDR 200120Z 19004KT 9999 OVC004 13/13 Q1017 EDDR 200050Z 22003KT 9999 -RA OVC004 13/13 Q1017 EDDR 200020Z 23004KT 9999 -RA BKN004 13/13 Q1017 EDDR 192350Z 20004KT 9999 BKN005 14/13 Q1017 EDDR 192320Z 18003KT 9999 BKN005 BKN008 14/13 Q1016 EDDR 192250Z 22003KT 190V260 9999 BKN005 BKN011 14/13 Q1017 EDDR 192220Z 21003KT 170V230 9999 SCT007 BKN011 14/13 Q1016 EDDR 192150Z 18003KT 150V210 9999 BKN007 BKN015 13/13 Q1016 EDDR 192120Z 19003KT 9999 SCT012 BKN022 13/13 Q1016 EDDR 192050Z 20003KT 170V230 9999 FEW007 SCT012 BKN020 14/13 Q1016 EDDR 192020Z VRB02KT 9999 FEW012 SCT015 BKN025 13/12 Q1016 NOSIG EDDR 191950Z 21005KT 9999 SCT015 BKN025 14/13 Q1016 NOSIG EDDR 191920Z 22005KT 9999 SCT015 BKN025 14/13 Q1016 NOSIG EDDR 191850Z 21005KT 9999 SCT034 14/13 Q1015 NOSIG EDDR 191820Z 22003KT 9999 FEW036 15/13 Q1015 NOSIG EDDR 191750Z 24003KT 9999 FEW026 SCT030 15/13 Q1015 NOSIG EDDR 191720Z 23005KT 9999 -SHRA FEW026 SCT030TCU 16/13 Q1015 NOSIG EDDR 191650Z 22003KT 160V280 9999 FEW026 BKN030TCU 16/13 Q1014 NOSIG EDDR 191620Z 21005KT 160V240 9999 FEW026 BKN030 17/13 Q1014 NOSIG EDDR 191550Z VRB04KT 9999 BKN030 17/13 Q1014 NOSIG EDDR 191520Z VRB01KT 9999 SCT027 18/13 Q1014 NOSIG EDDR 191450Z 07004KT 9999 BKN027 18/13 Q1014 NOSIG EDDR 191420Z 11003KT 060V180 9999 SCT028 18/12 Q1014 NOSIG

METAR Messwerte

Zurück zur Übersicht

Ort
m ü. NN
Zeit Temperatur Taupunkt Rel.
Luftfeuchte
Luftdruck:
Altimeter
NN
Station
Wind in Beaufort
(Knoten)
Sichtweite
(Meter)
Wolken
(Meter über Grund)
Wettererscheinung
Saarbrücken/Ensheim
320
Di 21.09. 03:5011882 %1024
1025
986
NO 2 (4)
W - O
>= 10000Stark bewölkt (1300) 
Saarbrücken/Ensheim
320
Di 21.09. 03:2011882 %1024
1025
986
ONO 2 (6)
NNO - O
>= 10000Stark bewölkt (1400) 
Saarbrücken/Ensheim
320
Di 21.09. 02:5010887 %1024
1025
986
NO 2 (4)>= 10000Stark bewölkt (1400) 
Saarbrücken/Ensheim
320
Di 21.09. 02:2011987 %1024
1025
986
NO 2 (3)
NNW - O
>= 10000Stark bewölkt (1500) 
Saarbrücken/Ensheim
320
Di 21.09. 01:5011987 %1024
1025
986
ONO 2 (3)
N - O
>= 10000Stark bewölkt (1500) 
Saarbrücken/Ensheim
320
Di 21.09. 01:2011987 %1024
1025
986
NO 2 (3)>= 10000Stark bewölkt (1500) 
Saarbrücken/Ensheim
320
Di 21.09. 00:5011987 %1024
1025
986
NO 2 (4)
N - ONO
>= 10000Stark bewölkt (1500) 
Saarbrücken/Ensheim
320
Di 21.09. 00:2012982 %1024
1024
986
NO 2 (5)
N - O
>= 10000Stark bewölkt (1300) 
Saarbrücken/Ensheim
320
Mo 20.09. 23:50121088 %1024
1024
986
NNO 3 (7)
N - ONO
>= 10000Stark bewölkt (1200) 
Saarbrücken/Ensheim
320
Mo 20.09. 23:20121088 %1023
1023
985
NO 2 (5)>= 10000Wolkig (1200) 
Saarbrücken/Ensheim
320
Mo 20.09. 22:5011987 %1023
1024
985
NO 2 (5)>= 10000Leicht bewölkt (1200) 
Saarbrücken/Ensheim
320
Mo 20.09. 22:20111094 %1023
1024
985
ONO 2 (6)>= 10000Leicht bewölkt (1200) 
Saarbrücken/Ensheim
320
Mo 20.09. 21:50111094 %1022
1023
984
ONO 2 (5)>= 10000Leicht bewölkt (1200) 
Saarbrücken/Ensheim
320
Mo 20.09. 21:20121088 %1022
1022
984
ONO 2 (6)>= 10000Nicht signifikant 
Saarbrücken/Ensheim
320
Mo 20.09. 20:50121194 %1022
1022
984
ONO 2 (6)>= 10000Nicht signifikant 
Saarbrücken/Ensheim
320
Mo 20.09. 20:20131188 %1022
1022
984
ONO 2 (6)>= 10000Leicht bewölkt (1400) 
Saarbrücken/Ensheim
320
Mo 20.09. 19:50131188 %1021
1021
983
ONO 3 (7)>= 10000Leicht bewölkt (1400) 
Saarbrücken/Ensheim
320
Mo 20.09. 19:20141182 %1021
1021
983
ONO 2 (6)>= 10000Leicht bewölkt (1200) 
Saarbrücken/Ensheim
320
Mo 20.09. 18:50151282 %1020
1020
982
NO 2 (6)
NNO - O
>= 10000Leicht bewölkt (550) 
Saarbrücken/Ensheim
320
Mo 20.09. 18:20161277 %1020
1020
982
NO 2 (6)
NNO - O
>= 10000Leicht bewölkt (490) 
Saarbrücken/Ensheim
320
Mo 20.09. 17:50161277 %1020
1020
982
NO 2 (6)
NNO - O
>= 10000Leicht bewölkt (490) 
Saarbrücken/Ensheim
320
Mo 20.09. 17:20171377 %1020
1020
982
NO 2 (6)
N - O
>= 10000Leicht bewölkt (490) 
Saarbrücken/Ensheim
320
Mo 20.09. 16:50171377 %1019
1019
981
NNO 3 (7)
NNW - ONO
>= 10000Wolkig (550) 
Saarbrücken/Ensheim
320
Mo 20.09. 16:20171377 %1019
1019
981
NO 2 (4)
NNW - OSO
>= 10000Wolkig (550) 
Saarbrücken/Ensheim
320
Mo 20.09. 15:50161277 %1019
1019
981
NNO 2 (5)
N - ONO
>= 10000Stark bewölkt (430) 
Saarbrücken/Ensheim
320
Mo 20.09. 15:20151388 %1019
1019
981
NO 2 (5)
N - ONO
>= 10000Stark bewölkt (400) 
Saarbrücken/Ensheim
320
Mo 20.09. 14:50151388 %1019
1019
981
NNO 2 (5)
NW - ONO
>= 10000Stark bewölkt (1100)
Stark bewölkt (370)
Leicht bewölkt (240)
 
Saarbrücken/Ensheim
320
Mo 20.09. 14:20151388 %1019
1019
981
N 2 (4)
NNW - NO
>= 10000Stark bewölkt (670)
Stark bewölkt (340)
Leicht bewölkt (210)
 
Saarbrücken/Ensheim
320
Mo 20.09. 13:50151388 %1019
1019
981
N 2 (4)
NW - NO
>= 10000Stark bewölkt (520)
Stark bewölkt (270)
 
Saarbrücken/Ensheim
320
Mo 20.09. 13:20141394 %1019
1019
981
NNO 2 (3)
NNW - NO
>= 10000Stark bewölkt (210) 
Saarbrücken/Ensheim
320
Mo 20.09. 12:50141288 %1019
1019
981
NO 2 (4)
N - O
>= 10000Stark bewölkt (210) 
Saarbrücken/Ensheim
320
Mo 20.09. 12:20141288 %1019
1019
981
NNO 2 (4)
NNW - SO
>= 10000Stark bewölkt (180) 
Saarbrücken/Ensheim
320
Mo 20.09. 11:50141288 %1019
1019
981
NO 2 (4)
N - O
6000Bedeckt (300)
Stark bewölkt (150)
 
Saarbrücken/Ensheim
320
Mo 20.09. 11:20131294 %1019
1019
981
NO 2 (4)4000Bedeckt (120)
Leicht bewölkt (91)
Nebeldunst
Saarbrücken/Ensheim
320
Mo 20.09. 10:50131294 %1018
1018
980
NO 2 (3)
N - O
4000Bedeckt (91)
Wolkig (61)
Nebeldunst
Saarbrücken/Ensheim
320
Mo 20.09. 10:20131294 %1018
1018
980
NO 2 (4)3000Bedeckt (91)
Wolkig (61)
Nebeldunst
Saarbrücken/Ensheim
320
Mo 20.09. 09:50131294 %1018
1018
980
ONO 2 (3)
NO - O
2500Bedeckt (91)
Stark bewölkt (61)
Nieselregen (schwach)
Nebeldunst
Saarbrücken/Ensheim
320
Mo 20.09. 09:201212100 %1018
1018
980
Uml 1 (2)2500Bedeckt (91)
Leicht bewölkt (61)
Nieselregen (schwach)
Nebeldunst
Saarbrücken/Ensheim
320
Mo 20.09. 08:501212100 %1018
1018
980
NO 2 (3)2500Bedeckt (91)
Leicht bewölkt (61)
Nieselregen (schwach)
Nebeldunst
Saarbrücken/Ensheim
320
Mo 20.09. 08:20121194 %1018
1018
980
O 2 (3)3000Bedeckt (91)
Leicht bewölkt (61)
Nieselregen (schwach)
Nebeldunst
Bald möglich: Nieselregen
Saarbrücken/Ensheim
320
Mo 20.09. 07:50121194 %1017
1017
979
O 2 (3)5000Bedeckt (91)
Leicht bewölkt (61)
Nebeldunst
Saarbrücken/Ensheim
320
Mo 20.09. 07:201212100 %1017
1017
979
NO 2 (4)5000Bedeckt (91)
Leicht bewölkt (61)
Nebeldunst
Saarbrücken/Ensheim
320
Mo 20.09. 06:50131294 %1017
1017
979
NO 2 (3)5000Bedeckt (91)
Leicht bewölkt (61)
Nebeldunst
Saarbrücken/Ensheim
320
Mo 20.09. 06:201313100 %1017
1017
979
O 1 (1)6000Stark bewölkt (91)
Leicht bewölkt (61)
 Bald möglich: Nebeldunst
Saarbrücken/Ensheim
320
Mo 20.09. 05:501313100 %1017
1017
979
ONO 1 (2)>= 10000Stark bewölkt (91) 
Saarbrücken/Ensheim
320
Mo 20.09. 05:201313100 %1017
1017
979
Windstill>= 10000Bedeckt (270)
Leicht bewölkt (120)
 
Saarbrücken/Ensheim
320
Mo 20.09. 04:501313100 %1017
1017
979
Uml 1 (1)>= 10000Bedeckt (270)
Wolkig (120)
 
Saarbrücken/Ensheim
320
Mo 20.09. 04:201313100 %1017
1017
979
SW 2 (3)5000Bedeckt (120)Nebeldunst
Saarbrücken/Ensheim
320
Mo 20.09. 03:501313100 %1017
1017
979
SSW 2 (4)>= 10000Bedeckt (150) 
Saarbrücken/Ensheim
320
Mo 20.09. 03:201313100 %1017
1017
979
S 2 (4)>= 10000Bedeckt (120) 
Saarbrücken/Ensheim
320
Mo 20.09. 02:501313100 %1017
1017
979
SW 2 (3)>= 10000Bedeckt (120)Regen (schwach)
Saarbrücken/Ensheim
320
Mo 20.09. 02:201313100 %1017
1017
979
SW 2 (4)>= 10000Stark bewölkt (120)Regen (schwach)
Saarbrücken/Ensheim
320
Mo 20.09. 01:50141394 %1017
1017
979
SSW 2 (4)>= 10000Stark bewölkt (150) 
Saarbrücken/Ensheim
320
Mo 20.09. 01:20141394 %1016
1016
978
S 2 (3)>= 10000Stark bewölkt (240)
Stark bewölkt (150)
 
Saarbrücken/Ensheim
320
Mo 20.09. 00:50141394 %1017
1017
979
SW 2 (3)
S - W
>= 10000Stark bewölkt (340)
Stark bewölkt (150)
 
Saarbrücken/Ensheim
320
Mo 20.09. 00:20141394 %1016
1016
978
SSW 2 (3)
S - SW
>= 10000Stark bewölkt (340)
Wolkig (210)
 
Saarbrücken/Ensheim
320
So 19.09. 23:501313100 %1016
1016
978
S 2 (3)
SSO - SSW
>= 10000Stark bewölkt (460)
Stark bewölkt (210)
 
Saarbrücken/Ensheim
320
So 19.09. 23:201313100 %1016
1016
978
S 2 (3)>= 10000Stark bewölkt (670)
Wolkig (370)
 
Saarbrücken/Ensheim
320
So 19.09. 22:50141394 %1016
1016
978
SSW 2 (3)
S - SW
>= 10000Stark bewölkt (610)
Wolkig (370)
Leicht bewölkt (210)
 
Saarbrücken/Ensheim
320
So 19.09. 22:20131294 %1016
1016
978
Uml 1 (2)>= 10000Stark bewölkt (760)
Wolkig (460)
Leicht bewölkt (370)
 
Saarbrücken/Ensheim
320
So 19.09. 21:50141394 %1016
1016
978
SSW 2 (5)>= 10000Stark bewölkt (760)
Wolkig (460)
 
Saarbrücken/Ensheim
320
So 19.09. 21:20141394 %1016
1016
978
SW 2 (5)>= 10000Stark bewölkt (760)
Wolkig (460)
 
Saarbrücken/Ensheim
320
So 19.09. 20:50141394 %1015
1015
977
SSW 2 (5)>= 10000Wolkig (1000) 
Saarbrücken/Ensheim
320
So 19.09. 20:20151388 %1015
1015
977
SW 2 (3)>= 10000Leicht bewölkt (1100) 
Saarbrücken/Ensheim
320
So 19.09. 19:50151388 %1015
1015
977
WSW 2 (3)>= 10000Wolkig (910)
Leicht bewölkt (790)
 
Saarbrücken/Ensheim
320
So 19.09. 19:20161382 %1015
1015
977
SW 2 (5)>= 10000Wolkig (910)
Leicht bewölkt (790)
Regen-Schauer (schwach)
Saarbrücken/Ensheim
320
So 19.09. 18:50161382 %1014
1014
976
SW 2 (3)
SSO - W
>= 10000Stark bewölkt (910)
Leicht bewölkt (790)
 
Saarbrücken/Ensheim
320
So 19.09. 18:20171377 %1014
1014
976
SSW 2 (5)
SSO - WSW
>= 10000Stark bewölkt (910)
Leicht bewölkt (790)
 
Saarbrücken/Ensheim
320
So 19.09. 17:50171377 %1014
1014
976
Uml 2 (4)>= 10000Stark bewölkt (910) 
Saarbrücken/Ensheim
320
So 19.09. 17:20181373 %1014
1014
976
Uml 1 (1)>= 10000Wolkig (820) 
Saarbrücken/Ensheim
320
So 19.09. 16:50181373 %1014
1014
976
ONO 2 (4)>= 10000Stark bewölkt (820) 
Saarbrücken/Ensheim
320
So 19.09. 16:20181268 %1014
1014
976
OSO 2 (3)
ONO - S
>= 10000Wolkig (850) 

Altimeter: Einstellung am Altimeter (Höhenmesser), die Höhe 0 muss auf diesen Luftdruckwert zeigen, damit das Gerät die Stationshöhe richtig anzeigt.

NN: Luftdruck reduziert auf "Normal Null", auf Meereshöhe, dieser von der Temperatur abhängige Wert wird bisweilen unkorrekt einfach als "Luftdruck" bezeichnet. Eigentlich nur eine fiktive Größe, die es erlaubt, Stationen auf unterschiedlichen Höhen miteinander zu vergleichen.

Station: Realer Luftdruck an der Station.